createdAt,value
2019-05-05T00:01:16.142Z,37.32
2019-05-05T00:03:50.960Z,37.37
2019-05-05T00:06:21.542Z,37.42
2019-05-05T00:08:51.830Z,37.49
2019-05-05T00:11:31.030Z,37.54
2019-05-05T00:14:04.745Z,37.59
2019-05-05T00:16:49.228Z,37.68
2019-05-05T00:19:32.197Z,37.74
2019-05-05T00:21:51.873Z,37.83
2019-05-05T00:24:24.370Z,37.89
2019-05-05T00:26:55.340Z,37.96
2019-05-05T00:29:25.608Z,38.01
2019-05-05T00:31:55.899Z,38.07
2019-05-05T00:34:27.660Z,38.16
2019-05-05T00:36:58.214Z,38.21
2019-05-05T00:39:28.857Z,38.29
2019-05-05T00:41:59.159Z,38.36
2019-05-05T00:44:29.381Z,38.40
2019-05-05T00:47:06.876Z,38.46
2019-05-05T00:49:46.463Z,38.52
2019-05-05T00:52:11.244Z,38.60
2019-05-05T00:54:41.828Z,38.65
2019-05-05T00:57:12.459Z,38.70
2019-05-05T00:59:45.086Z,38.76
2019-05-05T01:02:19.839Z,38.81
2019-05-05T01:04:50.217Z,38.87
2019-05-05T01:07:24.675Z,38.91
2019-05-05T01:09:54.922Z,38.96
2019-05-05T01:12:25.657Z,39.02
2019-05-05T01:14:58.990Z,39.08
2019-05-05T01:17:29.655Z,39.12
2019-05-05T01:20:04.064Z,39.21
2019-05-05T01:22:34.075Z,39.29
2019-05-05T01:25:06.843Z,39.34
2019-05-05T01:27:37.139Z,39.42
2019-05-05T01:30:17.069Z,39.49
2019-05-05T01:32:56.062Z,39.57
2019-05-05T01:35:27.019Z,39.63
2019-05-05T01:38:08.384Z,39.71
2019-05-05T01:40:46.536Z,39.76
2019-05-05T01:43:16.815Z,39.83
2019-05-05T01:45:48.620Z,39.92
2019-05-05T01:48:18.916Z,40.00
2019-05-05T01:50:49.500Z,40.05
2019-05-05T01:53:19.798Z,40.13
2019-05-05T01:55:50.812Z,40.20
2019-05-05T01:58:24.243Z,40.28
2019-05-05T02:00:54.646Z,40.35
2019-05-05T02:03:24.883Z,40.42
2019-05-05T02:05:55.653Z,40.50
2019-05-05T02:08:26.230Z,40.58
2019-05-05T02:10:56.888Z,40.64
2019-05-05T02:13:27.518Z,40.71
2019-05-05T02:15:58.163Z,40.80
2019-05-05T02:18:28.522Z,40.87
2019-05-05T02:21:07.627Z,40.92
2019-05-05T02:23:39.021Z,40.99
2019-05-05T02:26:09.606Z,41.03
2019-05-05T02:28:41.532Z,41.11
2019-05-05T02:31:25.710Z,41.18
2019-05-05T02:33:57.017Z,41.25
2019-05-05T02:36:28.425Z,41.29
2019-05-05T02:38:59.059Z,41.37
2019-05-05T02:41:31.537Z,41.42
2019-05-05T02:44:05.112Z,41.47
2019-05-05T02:46:40.791Z,41.53
2019-05-05T02:49:14.919Z,41.59
2019-05-05T02:51:47.381Z,41.68
2019-05-05T02:54:20.808Z,41.75
2019-05-05T02:56:54.181Z,41.83
2019-05-05T02:59:29.510Z,41.90
2019-05-05T03:02:04.342Z,41.96
2019-05-05T03:04:35.151Z,42.05
2019-05-05T03:07:10.468Z,42.10
2019-05-05T03:09:39.599Z,42.19
2019-05-05T03:12:11.287Z,42.25
2019-05-05T03:14:44.971Z,42.33
2019-05-05T03:17:16.095Z,42.39
2019-05-05T03:19:48.555Z,42.46
2019-05-05T03:22:20.002Z,42.53
2019-05-05T03:24:51.063Z,42.59
2019-05-05T03:27:23.706Z,42.65
2019-05-05T03:29:54.989Z,42.73
2019-05-05T03:32:26.653Z,42.79
2019-05-05T03:34:57.570Z,42.84
2019-05-05T03:37:28.258Z,42.90
2019-05-05T03:40:01.492Z,42.96
2019-05-05T03:42:37.397Z,43.01
2019-05-05T03:45:14.572Z,43.05
2019-05-05T03:47:45.807Z,43.11
2019-05-05T03:50:16.493Z,43.17
2019-05-05T03:52:46.966Z,43.23
2019-05-05T03:55:17.173Z,43.31
2019-05-05T03:57:48.038Z,43.38
2019-05-05T04:00:45.007Z,43.43
2019-05-05T04:03:15.642Z,43.47
2019-05-05T04:05:47.956Z,43.52
2019-05-05T04:08:19.074Z,43.60
2019-05-05T04:10:49.872Z,43.64
2019-05-05T04:13:20.892Z,43.68
2019-05-05T04:16:09.975Z,43.76
2019-05-05T04:18:48.250Z,43.79
2019-05-05T04:21:30.406Z,43.85
2019-05-05T04:23:50.453Z,43.90
2019-05-05T04:26:21.048Z,43.98
2019-05-05T04:28:51.330Z,44.01
2019-05-05T04:31:24.153Z,44.06
2019-05-05T04:33:54.424Z,44.09
2019-05-05T04:36:25.601Z,44.15
2019-05-05T04:38:55.886Z,44.19
2019-05-05T04:41:26.439Z,44.23
2019-05-05T04:43:56.727Z,44.29
2019-05-05T04:46:26.924Z,44.36
2019-05-05T04:49:03.569Z,44.36
2019-05-05T04:51:46.631Z,44.42
2019-05-05T04:54:09.613Z,44.45
2019-05-05T04:56:40.274Z,44.48
2019-05-05T04:59:10.549Z,44.58
2019-05-05T05:01:41.603Z,44.61
2019-05-05T05:04:16.470Z,44.66
2019-05-05T05:06:48.736Z,44.72
2019-05-05T05:09:19.022Z,44.76
2019-05-05T05:11:49.598Z,44.80
2019-05-05T05:14:20.258Z,44.86
2019-05-05T05:16:54.098Z,44.91
2019-05-05T05:19:24.348Z,44.93
2019-05-05T05:22:01.146Z,44.97
2019-05-05T05:24:27.199Z,45.02
2019-05-05T05:26:57.924Z,45.05
2019-05-05T05:29:28.194Z,45.07
2019-05-05T05:31:58.425Z,45.13
2019-05-05T05:34:28.981Z,45.15
2019-05-05T05:36:59.265Z,45.19
2019-05-05T05:39:31.135Z,45.23
2019-05-05T05:42:01.683Z,45.28
2019-05-05T05:44:50.120Z,45.33
2019-05-05T05:47:25.095Z,45.36
2019-05-05T05:50:03.969Z,45.43
2019-05-05T05:52:35.040Z,45.49
2019-05-05T05:55:07.285Z,45.56
2019-05-05T05:57:38.758Z,45.63
2019-05-05T06:00:10.518Z,45.67
2019-05-05T06:02:40.851Z,45.73
2019-05-05T06:05:11.712Z,45.78
2019-05-05T06:07:44.310Z,45.82
2019-05-05T06:10:22.157Z,45.87
2019-05-05T06:12:46.654Z,45.93
2019-05-05T06:15:17.619Z,45.96
2019-05-05T06:17:47.836Z,45.97
2019-05-05T06:20:18.062Z,46.00
2019-05-05T06:22:48.267Z,46.01
2019-05-05T06:25:18.473Z,46.07
2019-05-05T06:27:48.748Z,46.09
2019-05-05T06:30:19.162Z,46.13
2019-05-05T06:32:49.889Z,46.14
2019-05-05T06:35:20.540Z,46.16
2019-05-05T06:37:54.426Z,46.17
2019-05-05T06:40:35.963Z,46.20
2019-05-05T06:43:07.813Z,46.21
2019-05-05T06:45:40.075Z,46.21
2019-05-05T06:48:10.358Z,46.20
2019-05-05T06:50:40.551Z,46.23
2019-05-05T06:53:10.773Z,46.24
2019-05-05T06:55:40.998Z,46.24
2019-05-05T06:58:11.211Z,46.24
2019-05-05T07:00:43.950Z,46.24
2019-05-05T07:03:14.035Z,46.25
2019-05-05T07:05:44.933Z,46.27
2019-05-05T07:08:15.619Z,46.26
2019-05-05T07:10:46.280Z,46.25
2019-05-05T07:13:16.892Z,46.26
2019-05-05T07:15:47.190Z,46.27
2019-05-05T07:18:17.456Z,46.28
2019-05-05T07:20:49.032Z,46.29
2019-05-05T07:23:19.350Z,46.29
2019-05-05T07:25:49.999Z,46.30
2019-05-05T07:28:20.753Z,46.31
2019-05-05T07:30:51.093Z,46.27
2019-05-05T07:33:21.251Z,46.30
2019-05-05T07:36:09.355Z,46.28
2019-05-05T07:38:39.570Z,46.25
2019-05-05T07:41:09.800Z,46.23
2019-05-05T07:43:40.013Z,46.20
2019-05-05T07:46:10.386Z,46.14
2019-05-05T07:48:40.598Z,46.11
2019-05-05T07:51:11.169Z,46.08
2019-05-05T07:53:41.435Z,46.03
2019-05-05T07:56:14.284Z,45.93
2019-05-05T07:58:44.604Z,45.87
2019-05-05T08:01:15.245Z,45.82
2019-05-05T08:03:45.568Z,45.75
2019-05-05T08:06:15.815Z,45.68
2019-05-05T08:08:46.490Z,45.62
2019-05-05T08:11:16.745Z,45.57
2019-05-05T08:13:46.953Z,45.49
2019-05-05T08:16:24.860Z,45.40
2019-05-05T08:18:56.503Z,45.34
2019-05-05T08:21:27.408Z,45.25
2019-05-05T08:23:59.314Z,45.21
2019-05-05T08:26:33.563Z,45.12
2019-05-05T08:29:13.578Z,45.00
2019-05-05T08:31:45.155Z,44.92
2019-05-05T08:34:15.366Z,44.83
2019-05-05T08:36:45.583Z,44.76
2019-05-05T08:39:17.292Z,44.70
2019-05-05T08:41:48.052Z,44.59
2019-05-05T08:44:18.711Z,44.54
2019-05-05T08:46:49.440Z,44.47
2019-05-05T08:49:19.733Z,44.37
2019-05-05T08:51:54.695Z,44.27
2019-05-05T08:54:25.512Z,44.18
2019-05-05T08:56:56.174Z,44.11
2019-05-05T08:59:26.808Z,44.07
2019-05-05T09:01:58.003Z,43.98
2019-05-05T09:04:28.391Z,43.92
2019-05-05T09:06:58.625Z,43.88
2019-05-05T09:09:29.519Z,43.79
2019-05-05T09:11:59.869Z,43.74
2019-05-05T09:14:30.515Z,43.67
2019-05-05T09:17:00.859Z,43.59
2019-05-05T09:19:31.079Z,43.52
2019-05-05T09:22:01.447Z,43.44
2019-05-05T09:24:34.149Z,43.37
2019-05-05T09:27:07.540Z,43.26
2019-05-05T09:29:39.515Z,43.15
2019-05-05T09:32:10.149Z,43.03
2019-05-05T09:34:40.525Z,42.93
2019-05-05T09:37:10.796Z,42.84
2019-05-05T09:39:41.010Z,42.71
2019-05-05T09:42:11.275Z,42.59
2019-05-05T09:44:43.650Z,42.46
2019-05-05T09:47:13.871Z,42.38
2019-05-05T09:49:44.758Z,42.28
2019-05-05T09:52:15.532Z,42.16
2019-05-05T09:54:45.840Z,42.03
2019-05-05T09:57:16.548Z,41.92
2019-05-05T09:59:46.858Z,41.84
2019-05-05T10:02:17.525Z,41.76
2019-05-05T10:04:47.844Z,41.71
2019-05-05T10:07:18.116Z,41.64
2019-05-05T10:09:48.327Z,41.56
2019-05-05T10:12:18.654Z,41.46
2019-05-05T10:14:50.318Z,41.36
2019-05-05T10:17:21.111Z,41.27
2019-05-05T10:19:51.503Z,41.11
2019-05-05T10:22:23.770Z,41.03
2019-05-05T10:25:12.019Z,40.92
2019-05-05T10:27:47.518Z,40.80
2019-05-05T10:30:15.690Z,40.71
2019-05-05T10:32:46.524Z,40.63
2019-05-05T10:35:17.538Z,40.53
2019-05-05T10:37:48.154Z,40.41
2019-05-05T10:40:23.488Z,40.34
2019-05-05T10:42:54.185Z,40.26
2019-05-05T10:45:25.287Z,40.19
2019-05-05T10:47:55.779Z,40.09
2019-05-05T10:50:26.515Z,40.01
2019-05-05T10:52:57.175Z,39.92
2019-05-05T10:55:27.679Z,39.87
2019-05-05T10:57:57.951Z,39.79
2019-05-05T11:00:44.268Z,39.74
2019-05-05T11:03:15.477Z,39.64
2019-05-05T11:05:46.918Z,39.59
2019-05-05T11:08:17.568Z,39.53
2019-05-05T11:10:47.782Z,39.48
2019-05-05T11:13:18.188Z,39.41
2019-05-05T11:15:48.462Z,39.35
2019-05-05T11:18:18.747Z,39.27
2019-05-05T11:20:49.242Z,39.21
2019-05-05T11:23:19.481Z,39.14
2019-05-05T11:25:49.716Z,39.08
2019-05-05T11:28:20.225Z,39.06
2019-05-05T11:30:50.443Z,39.00
2019-05-05T11:33:38.607Z,38.96
2019-05-05T11:36:13.623Z,38.92
2019-05-05T11:38:44.652Z,38.90
2019-05-05T11:41:15.629Z,38.88
2019-05-05T11:43:46.279Z,38.86
2019-05-05T11:46:16.603Z,38.85
2019-05-05T11:48:46.901Z,38.83
2019-05-05T11:51:17.549Z,38.79
2019-05-05T11:53:47.773Z,38.76
2019-05-05T11:56:18.099Z,38.73
2019-05-05T11:58:49.755Z,38.66
2019-05-05T12:01:20.056Z,38.61
2019-05-05T12:03:50.353Z,38.55
2019-05-05T12:06:20.584Z,38.52
2019-05-05T12:08:50.807Z,38.52
2019-05-05T12:11:21.113Z,38.50
2019-05-05T12:13:51.905Z,38.46
2019-05-05T12:16:34.495Z,38.45
2019-05-05T12:19:06.322Z,38.42
2019-05-05T12:21:36.637Z,38.39
2019-05-05T12:24:08.864Z,38.35
2019-05-05T12:26:46.878Z,38.28
2019-05-05T12:29:17.819Z,38.23
2019-05-05T12:31:49.215Z,38.17
2019-05-05T12:34:19.514Z,38.13
2019-05-05T12:36:49.731Z,38.09
2019-05-05T12:39:19.969Z,38.06
2019-05-05T12:41:50.580Z,38.03
2019-05-05T12:44:23.632Z,37.96
2019-05-05T12:47:01.289Z,37.91
2019-05-05T12:49:33.821Z,37.86
2019-05-05T12:52:04.762Z,37.82
2019-05-05T12:54:35.455Z,37.79
2019-05-05T12:57:06.104Z,37.76
2019-05-05T12:59:36.393Z,37.72
2019-05-05T13:02:07.149Z,37.69
2019-05-05T13:04:37.729Z,37.68
2019-05-05T13:07:08.478Z,37.67
2019-05-05T13:09:40.277Z,37.65
2019-05-05T13:12:12.105Z,37.61
2019-05-05T13:14:43.870Z,37.61
2019-05-05T13:17:14.559Z,37.57
2019-05-05T13:19:52.790Z,37.55
2019-05-05T13:22:33.681Z,37.51
2019-05-05T13:25:25.317Z,37.47
2019-05-05T13:27:57.384Z,37.45
2019-05-05T13:30:27.972Z,37.44
2019-05-05T13:32:58.808Z,37.39
2019-05-05T13:35:29.136Z,37.35
2019-05-05T13:37:59.793Z,37.27
2019-05-05T13:40:30.087Z,37.20
2019-05-05T13:43:00.301Z,37.16
2019-05-05T13:45:34.309Z,37.11
2019-05-05T13:48:05.811Z,37.08
2019-05-05T13:50:36.389Z,37.05
2019-05-05T13:53:06.913Z,37.03
2019-05-05T13:55:37.151Z,37.00
2019-05-05T13:58:08.854Z,37.00
2019-05-05T14:00:39.658Z,36.97
2019-05-05T14:03:10.391Z,36.95
2019-05-05T14:05:41.057Z,36.93
2019-05-05T14:08:11.653Z,36.91
2019-05-05T14:10:42.222Z,36.89
2019-05-05T14:13:15.108Z,36.91
2019-05-05T14:15:46.233Z,36.88
2019-05-05T14:18:16.705Z,36.88
2019-05-05T14:20:47.073Z,36.86
2019-05-05T14:23:18.011Z,36.85
2019-05-05T14:25:48.380Z,36.85
2019-05-05T14:28:18.614Z,36.85
2019-05-05T14:30:50.548Z,36.83
2019-05-05T14:33:23.667Z,36.81
2019-05-05T14:35:59.408Z,36.80
2019-05-05T14:38:44.441Z,36.78
2019-05-05T14:41:14.880Z,36.77
2019-05-05T14:43:45.458Z,36.75
2019-05-05T14:46:16.127Z,36.72
2019-05-05T14:48:46.786Z,36.71
2019-05-05T14:51:17.132Z,36.69
2019-05-05T14:53:47.388Z,36.70
2019-05-05T14:56:17.620Z,36.69
2019-05-05T14:58:48.402Z,36.70
2019-05-05T15:01:18.775Z,36.68
2019-05-05T15:03:49.024Z,36.68
2019-05-05T15:06:26.837Z,36.66
2019-05-05T15:08:59.060Z,36.65
2019-05-05T15:11:41.388Z,36.65
2019-05-05T15:14:13.796Z,36.62
2019-05-05T15:16:44.159Z,36.61
2019-05-05T15:19:14.807Z,36.58
2019-05-05T15:21:48.765Z,36.56
2019-05-05T15:24:18.735Z,36.55
2019-05-05T15:26:52.251Z,36.55
2019-05-05T15:29:21.025Z,36.54
2019-05-05T15:31:51.233Z,36.54
2019-05-05T15:34:21.478Z,36.52
2019-05-05T15:36:51.689Z,36.50
2019-05-05T15:39:21.932Z,36.48
2019-05-05T15:41:54.324Z,36.48
2019-05-05T15:44:24.706Z,36.46
2019-05-05T15:46:57.670Z,36.46
2019-05-05T15:49:27.278Z,36.47
2019-05-05T15:51:57.570Z,36.46
2019-05-05T15:54:28.123Z,36.45
2019-05-05T15:57:05.539Z,36.44
2019-05-05T15:59:30.355Z,36.43
2019-05-05T16:02:00.741Z,36.42
2019-05-05T16:04:30.956Z,36.41
2019-05-05T16:07:01.227Z,36.42
2019-05-05T16:09:31.524Z,36.43
2019-05-05T16:12:03.769Z,36.42
2019-05-05T16:14:35.991Z,36.41
2019-05-05T16:17:13.644Z,36.39
2019-05-05T16:20:00.922Z,36.37
2019-05-05T16:22:35.882Z,36.35
2019-05-05T16:25:11.211Z,36.33
2019-05-05T16:27:44.648Z,36.31
2019-05-05T16:30:17.981Z,36.28
2019-05-05T16:32:48.634Z,36.26
2019-05-05T16:35:19.242Z,36.23
2019-05-05T16:37:49.461Z,36.20
2019-05-05T16:40:23.133Z,36.21
2019-05-05T16:42:54.352Z,36.18
2019-05-05T16:45:25.338Z,36.18
2019-05-05T16:47:55.918Z,36.15
2019-05-05T16:50:26.685Z,36.14
2019-05-05T16:53:05.825Z,36.12
2019-05-05T16:55:44.878Z,36.12
2019-05-05T16:58:15.552Z,36.10
2019-05-05T17:00:45.758Z,36.11
2019-05-05T17:03:16.051Z,36.08
2019-05-05T17:05:46.812Z,36.09
2019-05-05T17:08:17.353Z,36.10
2019-05-05T17:10:47.687Z,36.09
2019-05-05T17:13:24.162Z,36.12
2019-05-05T17:16:03.963Z,36.10
2019-05-05T17:18:41.652Z,36.11
2019-05-05T17:21:19.631Z,36.10
2019-05-05T17:23:50.219Z,36.09
2019-05-05T17:26:20.522Z,36.08
2019-05-05T17:28:50.745Z,36.09
2019-05-05T17:31:21.013Z,36.07
2019-05-05T17:33:53.447Z,36.08
2019-05-05T17:36:24.748Z,36.06
2019-05-05T17:38:57.164Z,36.06
2019-05-05T17:41:45.611Z,36.07
2019-05-05T17:44:24.935Z,36.04
2019-05-05T17:46:59.372Z,36.07
2019-05-05T17:49:33.694Z,36.07
2019-05-05T17:52:08.642Z,36.06
2019-05-05T17:54:40.492Z,36.05
2019-05-05T17:57:11.736Z,36.05
2019-05-05T17:59:44.100Z,36.05
2019-05-05T18:02:14.762Z,36.04
2019-05-05T18:04:45.963Z,36.05
2019-05-05T18:07:24.094Z,36.07
2019-05-05T18:09:56.351Z,36.07
2019-05-05T18:12:28.283Z,36.06
2019-05-05T18:15:00.617Z,36.10
2019-05-05T18:17:31.443Z,36.11
2019-05-05T18:20:04.310Z,36.13
2019-05-05T18:22:34.439Z,36.13
2019-05-05T18:25:06.245Z,36.14
2019-05-05T18:27:37.001Z,36.17
2019-05-05T18:30:08.268Z,36.16
2019-05-05T18:32:38.939Z,36.18
2019-05-05T18:35:10.019Z,36.19
2019-05-05T18:37:40.793Z,36.20
2019-05-05T18:40:11.713Z,36.23
2019-05-05T18:42:41.994Z,36.22
2019-05-05T18:45:14.724Z,36.25
2019-05-05T18:47:45.127Z,36.26
2019-05-05T18:50:16.031Z,36.29
2019-05-05T18:52:47.283Z,36.31
2019-05-05T18:55:18.350Z,36.34
2019-05-05T18:57:48.659Z,36.35
2019-05-05T19:00:20.717Z,36.37
2019-05-05T19:03:01.083Z,36.40
2019-05-05T19:05:45.759Z,36.43
2019-05-05T19:08:20.099Z,36.48
2019-05-05T19:10:50.711Z,36.50
2019-05-05T19:13:21.552Z,36.54
2019-05-05T19:15:53.781Z,36.57
2019-05-05T19:18:24.476Z,36.60
2019-05-05T19:20:59.496Z,36.63
2019-05-05T19:23:30.348Z,36.67
2019-05-05T19:26:01.056Z,36.68
2019-05-05T19:28:43.798Z,36.72
2019-05-05T19:31:04.292Z,36.77
2019-05-05T19:33:35.163Z,36.78
2019-05-05T19:36:06.230Z,36.82
2019-05-05T19:38:36.598Z,36.88
2019-05-05T19:41:06.822Z,36.90
2019-05-05T19:43:38.709Z,36.93
2019-05-05T19:46:10.923Z,36.96
2019-05-05T19:48:41.549Z,36.97
2019-05-05T19:51:14.203Z,37.01
2019-05-05T19:53:45.066Z,37.03
2019-05-05T19:56:15.956Z,37.07
2019-05-05T19:58:58.396Z,37.09
2019-05-05T20:01:31.586Z,37.12
2019-05-05T20:03:51.069Z,37.18
2019-05-05T20:06:23.609Z,37.21
2019-05-05T20:08:53.781Z,37.25
2019-05-05T20:11:24.707Z,37.27
2019-05-05T20:14:06.628Z,37.32
2019-05-05T20:16:31.657Z,37.35
2019-05-05T20:19:04.190Z,37.40
2019-05-05T20:21:34.694Z,37.42
2019-05-05T20:24:05.041Z,37.46
2019-05-05T20:26:35.670Z,37.48
2019-05-05T20:29:13.920Z,37.54
2019-05-05T20:31:38.284Z,37.59
2019-05-05T20:34:24.304Z,37.59
2019-05-05T20:37:08.706Z,37.62
2019-05-05T20:39:39.244Z,37.67
2019-05-05T20:42:10.358Z,37.69
2019-05-05T20:44:41.105Z,37.74
2019-05-05T20:47:11.863Z,37.76
2019-05-05T20:49:44.376Z,37.82
2019-05-05T20:52:15.054Z,37.86
2019-05-05T20:54:45.864Z,37.90
2019-05-05T20:57:16.626Z,37.95
2019-05-05T20:59:48.370Z,38.00
2019-05-05T21:02:19.020Z,38.03
2019-05-05T21:04:49.630Z,38.07
2019-05-05T21:07:23.507Z,38.11
2019-05-05T21:09:52.465Z,38.13
2019-05-05T21:12:25.811Z,38.17
2019-05-05T21:14:55.172Z,38.20
2019-05-05T21:17:25.497Z,38.25
2019-05-05T21:19:55.751Z,38.28
2019-05-05T21:22:27.724Z,38.31
2019-05-05T21:24:59.147Z,38.35
2019-05-05T21:27:29.848Z,38.38
2019-05-05T21:30:00.239Z,38.40
2019-05-05T21:32:34.030Z,38.43
2019-05-05T21:35:06.083Z,38.47
2019-05-05T21:37:36.383Z,38.49
2019-05-05T21:40:07.101Z,38.55
2019-05-05T21:42:37.323Z,38.58
2019-05-05T21:45:07.755Z,38.62
2019-05-05T21:47:38.053Z,38.62
2019-05-05T21:50:10.341Z,38.65
2019-05-05T21:52:42.707Z,38.70
2019-05-05T21:55:20.622Z,38.70
2019-05-05T21:57:55.290Z,38.73
2019-05-05T22:00:44.991Z,38.76
2019-05-05T22:03:17.752Z,38.79
2019-05-05T22:05:48.027Z,38.84
2019-05-05T22:08:18.350Z,38.87
2019-05-05T22:10:48.585Z,38.90
2019-05-05T22:13:18.823Z,38.91
2019-05-05T22:15:49.043Z,38.95
2019-05-05T22:18:19.486Z,38.97
2019-05-05T22:21:09.295Z,39.00
2019-05-05T22:23:39.527Z,39.02
2019-05-05T22:26:10.928Z,39.06
2019-05-05T22:28:41.216Z,39.09
2019-05-05T22:31:11.382Z,39.10
2019-05-05T22:33:41.958Z,39.11
2019-05-05T22:36:14.080Z,39.13
2019-05-05T22:38:44.702Z,39.15
2019-05-05T22:41:15.921Z,39.19
2019-05-05T22:43:46.745Z,39.22
2019-05-05T22:46:17.072Z,39.22
2019-05-05T22:48:47.343Z,39.25
2019-05-05T22:51:17.684Z,39.28
2019-05-05T22:53:48.090Z,39.33
2019-05-05T22:56:18.923Z,39.35
2019-05-05T22:58:49.636Z,39.38
2019-05-05T23:01:20.172Z,39.40
2019-05-05T23:03:55.237Z,39.41
2019-05-05T23:06:30.520Z,39.43
2019-05-05T23:09:00.853Z,39.46
2019-05-05T23:11:33.107Z,39.49
2019-05-05T23:14:21.564Z,39.51
2019-05-05T23:16:54.128Z,39.52
2019-05-05T23:19:26.385Z,39.54
2019-05-05T23:22:16.516Z,39.57
2019-05-05T23:24:48.408Z,39.60
2019-05-05T23:27:36.378Z,39.63
2019-05-05T23:30:09.810Z,39.68
2019-05-05T23:32:41.222Z,39.69
2019-05-05T23:35:11.491Z,39.71
2019-05-05T23:37:42.253Z,39.73
2019-05-05T23:40:14.407Z,39.76
2019-05-05T23:42:45.012Z,39.77
2019-05-05T23:45:15.646Z,39.80
2019-05-05T23:47:46.025Z,39.83
2019-05-05T23:50:16.766Z,39.86
2019-05-05T23:52:47.490Z,39.90
2019-05-05T23:55:18.156Z,39.93
2019-05-05T23:57:49.915Z,39.97
